createdAt,value
2023-05-09T00:00:11.974Z,0.30
2023-05-09T00:01:11.991Z,0.30
2023-05-09T00:02:12.129Z,0.30
2023-05-09T00:03:11.944Z,0.30
2023-05-09T00:04:12.166Z,0.30
2023-05-09T00:05:11.835Z,0.20
2023-05-09T00:06:11.759Z,0.30
2023-05-09T00:07:11.682Z,0.30
2023-05-09T00:08:11.924Z,0.30
2023-05-09T00:09:11.591Z,0.30
2023-05-09T00:10:11.744Z,0.30
2023-05-09T00:11:11.514Z,0.30
2023-05-09T00:12:11.469Z,0.30
2023-05-09T00:13:11.791Z,0.20
2023-05-09T00:14:11.387Z,0.30
2023-05-09T00:15:11.643Z,0.30
2023-05-09T00:16:11.344Z,0.30
2023-05-09T00:17:11.578Z,0.30
2023-05-09T00:18:11.211Z,0.30
2023-05-09T00:19:11.401Z,0.30
2023-05-09T00:20:11.136Z,0.30
2023-05-09T00:21:11.202Z,0.30
2023-05-09T00:22:11.050Z,0.30
2023-05-09T00:23:11.295Z,0.30
2023-05-09T00:24:10.957Z,0.30
2023-05-09T00:25:11.241Z,0.30
2023-05-09T00:26:10.870Z,0.30
2023-05-09T00:27:11.050Z,0.30
2023-05-09T00:28:10.802Z,0.30
2023-05-09T00:29:10.767Z,0.30
2023-05-09T00:30:10.709Z,0.30
2023-05-09T00:31:10.870Z,0.20
2023-05-09T00:32:10.699Z,0.20
2023-05-09T00:33:10.934Z,0.30
2023-05-09T00:34:10.534Z,0.20
2023-05-09T00:35:10.739Z,0.20
2023-05-09T00:36:10.695Z,0.20
2023-05-09T00:37:10.430Z,0.20
2023-05-09T00:38:10.520Z,0.20
2023-05-09T00:39:10.591Z,0.20
2023-05-09T00:40:10.278Z,0.30
2023-05-09T00:41:10.234Z,0.30
2023-05-09T00:42:10.537Z,0.30
2023-05-09T00:43:10.148Z,0.20
2023-05-09T00:44:10.240Z,0.30
2023-05-09T00:45:10.062Z,0.30
2023-05-09T00:46:10.044Z,0.20
2023-05-09T00:47:09.981Z,0.30
2023-05-09T00:48:09.967Z,0.30
2023-05-09T00:49:10.079Z,0.30
2023-05-09T00:50:09.858Z,0.30
2023-05-09T00:51:09.887Z,0.30
2023-05-09T00:52:09.764Z,0.30
2023-05-09T00:53:09.896Z,0.30
2023-05-09T00:54:09.748Z,0.30
2023-05-09T00:55:09.715Z,0.30
2023-05-09T00:56:09.608Z,0.30
2023-05-09T00:57:09.724Z,0.40
2023-05-09T00:58:09.510Z,0.40
2023-05-09T00:59:09.549Z,0.30
2023-05-09T01:00:09.454Z,0.40
2023-05-09T01:01:09.581Z,0.30
2023-05-09T01:02:09.345Z,0.30
2023-05-09T01:03:09.364Z,0.30
2023-05-09T01:04:09.449Z,0.30
2023-05-09T01:05:09.382Z,0.40
2023-05-09T01:06:09.197Z,0.30
2023-05-09T01:07:09.187Z,0.30
2023-05-09T01:08:09.250Z,0.30
2023-05-09T01:09:09.046Z,0.30
2023-05-09T01:10:09.216Z,0.30
2023-05-09T01:11:08.970Z,0.30
2023-05-09T01:12:09.014Z,0.30
2023-05-09T01:13:08.880Z,0.30
2023-05-09T01:14:09.028Z,0.30
2023-05-09T01:15:08.790Z,0.30
2023-05-09T01:16:09.164Z,0.40
2023-05-09T01:17:08.700Z,0.30
2023-05-09T01:18:08.896Z,0.30
2023-05-09T01:19:08.623Z,0.30
2023-05-09T01:20:08.573Z,0.30
2023-05-09T01:21:08.545Z,0.30
2023-05-09T01:22:08.684Z,0.30
2023-05-09T01:23:08.444Z,0.30
2023-05-09T01:24:08.704Z,0.30
2023-05-09T01:25:08.352Z,0.40
2023-05-09T01:26:08.333Z,0.30
2023-05-09T01:27:08.282Z,0.30
2023-05-09T01:28:08.326Z,0.30
2023-05-09T01:29:08.196Z,0.30
2023-05-09T01:30:08.534Z,0.30
2023-05-09T01:31:08.151Z,0.30
2023-05-09T01:32:08.076Z,0.30
2023-05-09T01:33:08.203Z,0.30
2023-05-09T01:34:07.979Z,0.30
2023-05-09T01:35:08.168Z,0.30
2023-05-09T01:36:07.916Z,0.30
2023-05-09T01:37:07.844Z,0.30
2023-05-09T01:38:07.806Z,0.20
2023-05-09T01:39:07.995Z,0.30
2023-05-09T01:40:07.718Z,0.20
2023-05-09T01:41:07.796Z,0.20
2023-05-09T01:42:07.876Z,0.20
2023-05-09T01:43:07.599Z,0.20
2023-05-09T01:44:07.671Z,0.20
2023-05-09T01:45:07.622Z,0.30
2023-05-09T01:46:07.481Z,0.20
2023-05-09T01:47:07.650Z,0.30
2023-05-09T01:48:07.398Z,0.20
2023-05-09T01:49:07.337Z,0.30
2023-05-09T01:50:07.315Z,0.30
2023-05-09T01:51:07.459Z,0.30
2023-05-09T01:52:07.325Z,0.30
2023-05-09T01:53:07.272Z,0.30
2023-05-09T01:54:07.114Z,0.30
2023-05-09T01:55:07.289Z,0.30
2023-05-09T01:56:07.038Z,0.30
2023-05-09T01:57:07.093Z,0.20
2023-05-09T01:58:06.953Z,0.20
2023-05-09T01:59:07.120Z,0.20
2023-05-09T02:00:06.919Z,0.30
2023-05-09T02:01:06.998Z,0.30
2023-05-09T02:02:06.959Z,0.30
2023-05-09T02:03:06.742Z,0.30
2023-05-09T02:04:06.734Z,0.20
2023-05-09T02:05:06.662Z,0.30
2023-05-09T02:06:06.602Z,0.20
2023-05-09T02:07:06.623Z,0.20
2023-05-09T02:08:06.562Z,0.30
2023-05-09T02:09:06.483Z,0.20
2023-05-09T02:10:06.579Z,0.20
2023-05-09T02:11:06.399Z,0.30
2023-05-09T02:12:06.349Z,0.30
2023-05-09T02:13:06.609Z,0.20
2023-05-09T02:14:06.272Z,0.30
2023-05-09T02:15:06.413Z,0.30
2023-05-09T02:16:06.237Z,0.30
2023-05-09T02:17:06.591Z,0.30
2023-05-09T02:18:06.122Z,0.30
2023-05-09T02:19:06.233Z,0.30
2023-05-09T02:20:06.008Z,0.20
2023-05-09T02:21:06.080Z,0.30
2023-05-09T02:22:05.978Z,0.30
2023-05-09T02:23:05.925Z,0.30
2023-05-09T02:24:05.888Z,0.20
2023-05-09T02:25:06.000Z,0.20
2023-05-09T02:26:05.751Z,0.30
2023-05-09T02:27:05.972Z,0.20
2023-05-09T02:28:05.738Z,0.20
2023-05-09T02:29:05.655Z,0.30
2023-05-09T02:30:05.767Z,0.30
2023-05-09T02:31:05.726Z,0.30
2023-05-09T02:32:05.519Z,0.20
2023-05-09T02:33:05.553Z,0.30
2023-05-09T02:34:05.407Z,0.30
2023-05-09T02:35:05.376Z,0.20
2023-05-09T02:36:05.745Z,0.20
2023-05-09T02:37:05.292Z,0.30
2023-05-09T02:38:05.357Z,0.30
2023-05-09T02:39:05.199Z,0.20
2023-05-09T02:40:05.370Z,0.30
2023-05-09T02:41:05.116Z,0.30
2023-05-09T02:42:05.170Z,0.30
2023-05-09T02:43:05.022Z,0.30
2023-05-09T02:44:05.457Z,0.20
2023-05-09T02:45:04.941Z,0.30
2023-05-09T02:46:04.956Z,0.20
2023-05-09T02:47:04.869Z,0.30
2023-05-09T02:48:07.739Z,0.20
2023-05-09T02:49:04.789Z,0.20
2023-05-09T02:50:04.839Z,0.30
2023-05-09T02:51:04.691Z,0.30
2023-05-09T02:52:04.886Z,0.20
2023-05-09T02:53:04.855Z,0.30
2023-05-09T02:54:04.562Z,0.30
2023-05-09T02:55:04.656Z,0.30
2023-05-09T02:56:04.464Z,0.30
2023-05-09T02:57:04.663Z,0.20
2023-05-09T02:58:13.382Z,0.30
2023-05-09T02:59:04.357Z,0.30
2023-05-09T03:00:04.498Z,0.30
2023-05-09T03:01:04.313Z,0.30
2023-05-09T03:02:04.255Z,0.30
2023-05-09T03:03:04.258Z,0.30
2023-05-09T03:04:04.139Z,0.30
2023-05-09T03:05:04.420Z,0.30
2023-05-09T03:06:04.056Z,0.30
2023-05-09T03:07:04.124Z,0.30
2023-05-09T03:08:04.229Z,0.20
2023-05-09T03:09:03.918Z,0.20
2023-05-09T03:10:03.884Z,0.30
2023-05-09T03:11:03.970Z,0.30
2023-05-09T03:12:03.806Z,0.20
2023-05-09T03:13:04.039Z,0.30
2023-05-09T03:14:03.705Z,0.20
2023-05-09T03:15:03.684Z,0.30
2023-05-09T03:16:03.863Z,0.20
2023-05-09T03:17:03.867Z,0.30
2023-05-09T03:18:03.690Z,0.20
2023-05-09T03:19:03.492Z,0.20
2023-05-09T03:20:04.401Z,0.20
2023-05-09T03:21:03.426Z,0.20
2023-05-09T03:22:03.624Z,0.20
2023-05-09T03:23:03.329Z,0.20
2023-05-09T03:24:03.647Z,0.20
2023-05-09T03:25:03.244Z,0.20
2023-05-09T03:26:03.201Z,0.20
2023-05-09T03:27:03.155Z,0.20
2023-05-09T03:28:03.285Z,0.20
2023-05-09T03:29:03.068Z,0.30
2023-05-09T03:30:03.290Z,0.20
2023-05-09T03:31:03.000Z,0.30
2023-05-09T03:32:02.937Z,0.30
2023-05-09T03:33:02.927Z,0.40
2023-05-09T03:34:03.213Z,0.30
2023-05-09T03:35:02.818Z,0.30
2023-05-09T03:36:03.017Z,0.30
2023-05-09T03:37:02.722Z,0.30
2023-05-09T03:38:02.682Z,0.30
2023-05-09T03:39:02.831Z,0.30
2023-05-09T03:40:02.623Z,0.30
2023-05-09T03:41:02.641Z,0.30
2023-05-09T03:42:02.509Z,0.30
2023-05-09T03:43:02.493Z,0.30
2023-05-09T03:44:02.426Z,0.30
2023-05-09T03:45:02.468Z,0.30
2023-05-09T03:46:02.363Z,0.20
2023-05-09T03:47:02.545Z,0.20
2023-05-09T03:48:02.301Z,0.30
2023-05-09T03:49:02.204Z,0.30
2023-05-09T03:50:02.180Z,0.30
2023-05-09T03:51:02.304Z,0.20
2023-05-09T03:52:02.357Z,0.30
2023-05-09T03:53:02.115Z,0.30
2023-05-09T03:54:01.999Z,0.40
2023-05-09T03:55:01.963Z,0.30
2023-05-09T03:56:02.146Z,0.30
2023-05-09T03:57:01.874Z,0.40
2023-05-09T03:58:01.949Z,0.30
2023-05-09T03:59:01.782Z,0.30
2023-05-09T04:00:02.018Z,0.30
2023-05-09T04:01:01.701Z,0.30
2023-05-09T04:02:01.804Z,0.30
2023-05-09T04:03:01.690Z,0.30
2023-05-09T04:04:01.818Z,0.30
2023-05-09T04:05:01.537Z,0.30
2023-05-09T04:06:01.510Z,0.30
2023-05-09T04:07:01.457Z,0.20
2023-05-09T04:08:01.620Z,0.20
2023-05-09T04:09:01.366Z,0.20
2023-05-09T04:10:01.424Z,0.20
2023-05-09T04:11:01.281Z,0.20
2023-05-09T04:12:01.480Z,0.20
2023-05-09T04:13:01.284Z,0.30
2023-05-09T04:14:01.250Z,0.30
2023-05-09T04:15:01.112Z,0.20
2023-05-09T04:16:01.262Z,0.30
2023-05-09T04:17:01.197Z,0.30
2023-05-09T04:18:00.996Z,0.30
2023-05-09T04:19:01.080Z,0.30
2023-05-09T04:20:00.892Z,0.30
2023-05-09T04:21:02.153Z,0.30
2023-05-09T04:22:00.801Z,0.30
2023-05-09T04:23:00.760Z,0.30
2023-05-09T04:24:00.729Z,0.30
2023-05-09T04:25:00.914Z,0.30
2023-05-09T04:26:00.668Z,0.40
2023-05-09T04:27:00.728Z,0.40
2023-05-09T04:28:00.564Z,0.30
2023-05-09T04:29:00.519Z,0.30
2023-05-09T04:30:00.462Z,0.30
2023-05-09T04:31:00.849Z,0.30
2023-05-09T04:32:00.468Z,0.20
2023-05-09T04:33:00.830Z,0.30
2023-05-09T04:34:00.292Z,0.30
2023-05-09T04:35:00.271Z,0.20
2023-05-09T04:36:00.387Z,0.20
2023-05-09T04:37:00.446Z,0.30
2023-05-09T04:38:00.395Z,0.20
2023-05-09T04:39:00.109Z,0.20
2023-05-09T04:40:00.211Z,0.30
2023-05-09T04:41:00.006Z,0.30
2023-05-09T04:42:00.225Z,0.30
2023-05-09T04:42:59.948Z,0.30
2023-05-09T04:44:00.048Z,0.30
2023-05-09T04:44:59.827Z,0.40
2023-05-09T04:45:59.872Z,0.30
2023-05-09T04:46:59.901Z,0.40
2023-05-09T04:47:59.885Z,0.40
2023-05-09T04:48:59.665Z,0.30
2023-05-09T04:49:59.893Z,0.30
2023-05-09T04:50:59.616Z,0.30
2023-05-09T04:51:59.540Z,0.30
2023-05-09T04:52:59.689Z,0.40
2023-05-09T04:53:59.452Z,0.30
2023-05-09T04:54:59.497Z,0.30
2023-05-09T04:55:59.362Z,0.30
2023-05-09T04:57:09.986Z,0.30
2023-05-09T04:57:59.273Z,0.20
2023-05-09T04:58:59.327Z,0.30
2023-05-09T04:59:59.197Z,0.30
2023-05-09T05:00:59.340Z,0.30
2023-05-09T05:01:59.191Z,0.40
2023-05-09T05:02:59.276Z,0.30
2023-05-09T05:03:59.028Z,0.40
2023-05-09T05:05:10.844Z,0.30
2023-05-09T05:05:58.961Z,0.30
2023-05-09T05:06:58.981Z,0.30
2023-05-09T05:07:58.850Z,0.30
2023-05-09T05:08:59.039Z,0.40
2023-05-09T05:09:59.001Z,0.30
2023-05-09T05:10:58.733Z,0.20
2023-05-09T05:12:02.438Z,0.30
2023-05-09T05:12:58.782Z,0.30
2023-05-09T05:13:58.827Z,0.30
2023-05-09T05:14:58.569Z,0.40
2023-05-09T05:15:58.688Z,0.30
2023-05-09T05:16:58.481Z,0.20
2023-05-09T05:18:00.718Z,0.30
2023-05-09T05:18:58.384Z,0.30
2023-05-09T05:19:58.341Z,0.20
2023-05-09T05:20:58.510Z,0.40
2023-05-09T05:21:58.480Z,0.30
2023-05-09T05:22:58.222Z,0.40
2023-05-09T05:23:58.381Z,0.30
2023-05-09T05:24:58.135Z,0.30
2023-05-09T05:25:58.088Z,0.30
2023-05-09T05:26:58.072Z,0.40
2023-05-09T05:27:58.222Z,0.30
2023-05-09T05:28:57.961Z,0.30
2023-05-09T05:29:58.019Z,0.30
2023-05-09T05:30:57.874Z,0.30
2023-05-09T05:31:57.989Z,0.30
2023-05-09T05:32:57.890Z,0.30
2023-05-09T05:33:57.844Z,0.30
2023-05-09T05:34:57.712Z,0.30
2023-05-09T05:35:57.867Z,0.40
2023-05-09T05:36:57.622Z,0.30
2023-05-09T05:37:57.585Z,0.40
2023-05-09T05:38:57.879Z,0.30
2023-05-09T05:39:57.493Z,0.40
2023-05-09T05:40:57.702Z,0.20
2023-05-09T05:41:57.408Z,0.20
2023-05-09T05:42:57.510Z,0.30
2023-05-09T05:43:57.339Z,0.30
2023-05-09T05:44:57.503Z,0.30
2023-05-09T05:45:57.258Z,0.30
2023-05-09T05:46:57.359Z,0.30
2023-05-09T05:47:57.216Z,0.40
2023-05-09T05:48:57.117Z,0.30
2023-05-09T05:49:57.070Z,0.30
2023-05-09T05:50:57.345Z,0.30
2023-05-09T05:51:56.997Z,0.30
2023-05-09T05:52:57.160Z,0.30
2023-05-09T05:53:56.909Z,0.30
2023-05-09T05:54:56.868Z,0.50
2023-05-09T05:55:56.976Z,0.30
2023-05-09T05:56:56.786Z,0.30
2023-05-09T05:57:57.001Z,0.30
2023-05-09T05:58:56.849Z,0.30
2023-05-09T05:59:56.820Z,0.40
2023-05-09T06:03:49.292Z,0.20
2023-05-09T06:04:48.013Z,0.30
2023-05-09T06:05:48.036Z,0.20
2023-05-09T06:06:47.759Z,0.30
2023-05-09T06:07:47.857Z,0.30
2023-05-09T06:08:47.669Z,0.30
2023-05-09T06:09:48.068Z,0.30
2023-05-09T06:10:47.593Z,0.30
2023-05-09T06:11:47.669Z,0.20
2023-05-09T06:12:47.542Z,0.30
2023-05-09T06:13:47.793Z,0.20
2023-05-09T06:14:48.623Z,0.30
2023-05-09T06:15:47.497Z,0.20
2023-05-09T06:16:47.349Z,0.20
2023-05-09T06:17:47.525Z,0.20
2023-05-09T06:18:47.248Z,0.30
2023-05-09T06:19:47.317Z,0.30
2023-05-09T06:20:47.183Z,0.20
2023-05-09T06:21:47.330Z,0.30
2023-05-09T06:22:47.110Z,0.30
2023-05-09T06:24:01.528Z,0.20
2023-05-09T06:24:47.150Z,0.20
2023-05-09T06:25:47.205Z,0.20
2023-05-09T06:26:47.162Z,0.30
2023-05-09T06:27:46.868Z,0.40
2023-05-09T06:28:46.978Z,0.30
2023-05-09T06:29:46.984Z,0.30
2023-05-09T06:30:46.781Z,0.30
2023-05-09T06:31:47.036Z,0.30
2023-05-09T06:32:46.761Z,0.30
2023-05-09T06:33:46.808Z,0.30
2023-05-09T06:34:46.583Z,0.30
2023-05-09T06:35:46.668Z,0.20
2023-05-09T06:36:46.636Z,0.30
2023-05-09T06:37:48.275Z,0.30
2023-05-09T06:38:46.679Z,0.30
2023-05-09T06:39:46.373Z,0.30
2023-05-09T06:40:46.377Z,0.30
2023-05-09T06:41:46.310Z,0.30
2023-05-09T06:42:46.560Z,0.30
2023-05-09T06:43:46.222Z,0.30
2023-05-09T06:44:46.309Z,0.30
2023-05-09T06:45:46.132Z,0.30
2023-05-09T06:46:46.386Z,0.30
2023-05-09T06:47:46.065Z,0.30
2023-05-09T06:48:46.304Z,0.30
2023-05-09T06:49:45.973Z,0.30
2023-05-09T06:50:46.117Z,0.20
2023-05-09T06:51:45.896Z,0.20
2023-05-09T06:52:45.853Z,0.30
2023-05-09T06:53:46.150Z,0.20
2023-05-09T06:54:45.766Z,0.30
2023-05-09T06:55:45.949Z,0.20
2023-05-09T06:56:45.688Z,0.20
2023-05-09T06:57:45.757Z,0.20
2023-05-09T06:58:45.624Z,0.30
2023-05-09T06:59:45.774Z,0.30
2023-05-09T07:00:45.827Z,0.20
2023-05-09T07:01:45.809Z,0.30
2023-05-09T07:02:45.500Z,0.30
2023-05-09T07:03:45.400Z,0.20
2023-05-09T07:04:45.411Z,0.30
2023-05-09T07:05:45.624Z,0.30
2023-05-09T07:06:45.346Z,0.30
2023-05-09T07:07:45.425Z,0.20
2023-05-09T07:08:45.211Z,0.20
2023-05-09T07:09:45.177Z,0.20
2023-05-09T07:10:45.128Z,0.20
2023-05-09T07:11:45.254Z,0.20
2023-05-09T07:12:45.092Z,0.30
2023-05-09T07:13:45.265Z,0.20
2023-05-09T07:14:44.986Z,0.30
2023-05-09T07:15:45.089Z,0.30
2023-05-09T07:16:45.216Z,0.30
2023-05-09T07:17:44.972Z,0.30
2023-05-09T07:18:45.312Z,0.30
2023-05-09T07:19:44.776Z,0.30
2023-05-09T07:20:44.737Z,0.30
2023-05-09T07:21:44.698Z,0.30
2023-05-09T07:22:44.953Z,0.30
2023-05-09T07:23:44.618Z,0.30
2023-05-09T07:24:44.768Z,0.30
2023-05-09T07:25:44.530Z,0.30
2023-05-09T07:26:44.503Z,0.30
2023-05-09T07:27:44.840Z,0.30
2023-05-09T07:28:44.565Z,0.40
2023-05-09T07:29:44.374Z,0.20
2023-05-09T07:30:44.572Z,0.20
2023-05-09T07:31:44.350Z,0.20
2023-05-09T07:32:44.272Z,0.20
2023-05-09T07:33:44.390Z,0.30
2023-05-09T07:34:44.190Z,0.20
2023-05-09T07:35:44.405Z,0.30
2023-05-09T07:36:44.105Z,0.20
2023-05-09T07:37:44.220Z,0.20
2023-05-09T07:38:44.069Z,0.30
2023-05-09T07:39:44.447Z,0.20
2023-05-09T07:40:43.937Z,0.20
2023-05-09T07:41:44.257Z,0.20
2023-05-09T07:42:43.861Z,0.30
2023-05-09T07:43:43.825Z,0.20
2023-05-09T07:44:43.803Z,0.30
2023-05-09T07:45:44.103Z,0.20
2023-05-09T07:46:43.941Z,0.30
2023-05-09T07:47:43.910Z,0.20
2023-05-09T07:48:43.627Z,0.30
2023-05-09T07:49:43.598Z,0.20
2023-05-09T07:50:43.698Z,0.20
2023-05-09T07:51:43.536Z,0.30
2023-05-09T07:52:43.714Z,0.30
2023-05-09T07:53:43.436Z,0.30
2023-05-09T07:54:43.407Z,0.20
2023-05-09T07:55:43.366Z,0.50
2023-05-09T07:56:43.526Z,0.20
2023-05-09T07:57:43.585Z,0.20
2023-05-09T07:58:43.540Z,0.30
2023-05-09T07:59:43.204Z,0.30
2023-05-09T08:00:43.212Z,0.30
2023-05-09T08:01:43.133Z,0.30
2023-05-09T08:02:43.462Z,0.30
2023-05-09T08:03:43.124Z,0.30
2023-05-09T08:04:43.217Z,0.20
2023-05-09T08:05:43.233Z,0.30
2023-05-09T08:06:44.223Z,0.30
2023-05-09T08:07:42.924Z,0.20
2023-05-09T08:08:43.002Z,0.20
2023-05-09T08:09:42.843Z,0.30
2023-05-09T08:10:43.017Z,0.20
2023-05-09T08:11:43.027Z,0.20
2023-05-09T08:12:42.969Z,0.20
2023-05-09T08:13:42.832Z,0.20
2023-05-09T08:14:42.645Z,0.20
2023-05-09T08:15:43.094Z,0.20
2023-05-09T08:16:42.575Z,0.20
2023-05-09T08:17:42.572Z,0.20
2023-05-09T08:18:42.673Z,0.20
2023-05-09T08:19:42.462Z,0.20
2023-05-09T08:20:42.721Z,0.20
2023-05-09T08:21:42.402Z,0.20
2023-05-09T08:22:42.500Z,0.20
2023-05-09T08:23:42.451Z,0.20
2023-05-09T08:24:42.513Z,0.20
2023-05-09T08:25:42.244Z,0.20
2023-05-09T08:26:42.431Z,0.20
2023-05-09T08:27:42.282Z,0.20
2023-05-09T08:28:42.131Z,0.20
2023-05-09T08:29:42.097Z,0.20
2023-05-09T08:30:42.248Z,0.20
2023-05-09T08:31:42.053Z,0.20
2023-05-09T08:32:42.321Z,0.20
2023-05-09T08:33:42.107Z,0.20
2023-05-09T08:34:41.965Z,0.20
2023-05-09T08:35:43.316Z,0.20
2023-05-09T08:36:41.838Z,0.20
2023-05-09T08:37:41.901Z,0.30
2023-05-09T08:38:41.784Z,0.30
2023-05-09T08:39:41.731Z,0.20
2023-05-09T08:40:41.767Z,0.20
2023-05-09T08:41:41.716Z,0.30
2023-05-09T08:42:41.621Z,0.20
2023-05-09T08:43:41.734Z,0.20
2023-05-09T08:44:41.544Z,0.20
2023-05-09T08:45:41.499Z,0.20
2023-05-09T08:46:41.855Z,0.20
2023-05-09T08:47:41.458Z,0.20
2023-05-09T08:48:41.557Z,0.20
2023-05-09T08:49:41.362Z,0.20
2023-05-09T08:50:41.323Z,0.20
2023-05-09T08:51:41.323Z,0.20
2023-05-09T08:52:41.388Z,0.20
2023-05-09T08:53:41.207Z,0.20
2023-05-09T08:54:41.406Z,0.30
2023-05-09T08:55:41.137Z,0.20
2023-05-09T08:56:41.110Z,0.20
2023-05-09T08:57:41.422Z,0.20
2023-05-09T08:58:41.024Z,0.20
2023-05-09T08:59:41.035Z,0.30
2023-05-09T09:00:40.961Z,0.20
2023-05-09T09:01:40.976Z,0.30
2023-05-09T09:02:40.901Z,0.20
2023-05-09T09:03:41.053Z,0.20
2023-05-09T09:04:40.863Z,0.20
2023-05-09T09:05:42.251Z,0.20
2023-05-09T09:06:40.757Z,0.20
2023-05-09T09:07:40.697Z,0.20
2023-05-09T09:08:40.663Z,0.20
2023-05-09T09:09:40.894Z,0.20
2023-05-09T09:10:40.590Z,0.20
2023-05-09T09:11:40.741Z,0.20
2023-05-09T09:12:40.550Z,0.20
2023-05-09T09:13:40.518Z,0.30
2023-05-09T09:14:40.450Z,0.20
2023-05-09T09:15:40.548Z,0.20
2023-05-09T09:16:40.423Z,0.20
2023-05-09T09:17:40.576Z,0.20
2023-05-09T09:18:40.367Z,0.20
2023-05-09T09:19:40.265Z,0.20
2023-05-09T09:20:40.273Z,0.10
2023-05-09T09:21:40.372Z,0.10
2023-05-09T09:22:40.163Z,0.20
2023-05-09T09:23:41.409Z,0.20
2023-05-09T09:24:40.187Z,0.20
2023-05-09T09:25:40.056Z,0.10
2023-05-09T09:26:41.228Z,0.80
2023-05-09T09:27:39.980Z,0.50
2023-05-09T09:28:40.011Z,0.20
2023-05-09T09:29:40.066Z,0.20
2023-05-09T09:30:39.876Z,0.20
2023-05-09T09:31:40.079Z,0.20
2023-05-09T09:32:39.859Z,0.10
2023-05-09T09:33:39.845Z,0.20
2023-05-09T09:34:39.749Z,0.10
2023-05-09T09:35:39.918Z,0.10
2023-05-09T09:36:39.713Z,0.10
2023-05-09T09:37:39.898Z,0.20
2023-05-09T09:38:39.611Z,0.90
2023-05-09T09:39:39.703Z,0.10
2023-05-09T09:40:39.553Z,0.10
2023-05-09T09:41:39.520Z,0.10
2023-05-09T09:42:39.711Z,0.10
2023-05-09T09:43:39.484Z,0.10
2023-05-09T09:44:39.726Z,0.10
2023-05-09T09:45:39.427Z,0.10
2023-05-09T09:46:39.643Z,0.10
2023-05-09T09:47:39.592Z,0.10
2023-05-09T09:48:39.324Z,0.10
2023-05-09T09:49:39.363Z,0.10
2023-05-09T09:50:39.308Z,0.10
2023-05-09T09:51:39.371Z,0.10
2023-05-09T09:52:39.174Z,0.10
2023-05-09T09:53:39.131Z,0.10
2023-05-09T09:54:39.179Z,0.10
2023-05-09T09:55:39.074Z,0.10
2023-05-09T09:56:40.457Z,0.10
2023-05-09T09:57:39.030Z,0.10
2023-05-09T09:58:39.203Z,0.10
2023-05-09T09:59:38.943Z,0.10
2023-05-09T10:00:39.027Z,0.10
2023-05-09T10:01:38.894Z,0.10
2023-05-09T10:02:40.276Z,0.10
2023-05-09T10:03:38.854Z,0.10
2023-05-09T10:04:38.834Z,0.10
2023-05-09T10:05:38.765Z,0.10
2023-05-09T10:06:38.853Z,0.10
2023-05-09T10:07:38.714Z,0.10
2023-05-09T10:08:38.887Z,0.10
2023-05-09T10:09:38.657Z,0.10
2023-05-09T10:10:38.607Z,0.10
2023-05-09T10:11:38.548Z,0.10
2023-05-09T10:12:38.696Z,0.10
2023-05-09T10:13:38.621Z,0.10
2023-05-09T10:14:38.527Z,0.10
2023-05-09T10:15:49.353Z,0.10
2023-05-09T10:16:43.813Z,0.10
2023-05-09T10:17:38.721Z,0.10
2023-05-09T10:18:38.460Z,0.10
2023-05-09T10:19:39.382Z,0.10
2023-05-09T10:20:38.247Z,0.10
2023-05-09T10:21:38.352Z,0.10
2023-05-09T10:22:38.367Z,0.10
2023-05-09T10:23:38.245Z,0.10
2023-05-09T10:24:38.176Z,0.10
2023-05-09T10:25:38.101Z,0.10
2023-05-09T10:26:38.190Z,0.10
2023-05-09T10:27:38.045Z,0.10
2023-05-09T10:28:38.210Z,0.10
2023-05-09T10:29:38.051Z,0.10
2023-05-09T10:30:38.005Z,0.10
2023-05-09T10:31:37.935Z,0.10
2023-05-09T10:32:38.050Z,0.10
2023-05-09T10:33:37.835Z,0.10
2023-05-09T10:34:38.046Z,0.10
2023-05-09T10:35:37.788Z,0.10
2023-05-09T10:36:37.853Z,0.10
2023-05-09T10:37:37.709Z,0.10
2023-05-09T10:38:37.869Z,0.10
2023-05-09T10:39:37.649Z,0.10
2023-05-09T10:40:37.804Z,0.00
2023-05-09T10:41:37.685Z,0.10
2023-05-09T10:42:37.572Z,0.10
2023-05-09T10:43:37.691Z,0.10
2023-05-09T10:44:37.499Z,0.10
2023-05-09T10:45:37.481Z,0.10
2023-05-09T10:46:37.638Z,0.10
2023-05-09T10:47:37.527Z,0.10
2023-05-09T10:48:37.385Z,0.10
2023-05-09T10:49:37.622Z,0.10
2023-05-09T10:50:37.314Z,0.10
2023-05-09T10:51:37.279Z,0.10
2023-05-09T10:52:37.559Z,0.10
2023-05-09T10:53:37.218Z,0.10
2023-05-09T10:54:37.360Z,0.10
2023-05-09T10:55:37.166Z,0.10
2023-05-09T10:56:37.380Z,0.10
2023-05-09T10:57:37.120Z,0.10
2023-05-09T10:58:37.422Z,0.10
2023-05-09T10:59:37.028Z,0.10
2023-05-09T11:00:37.204Z,0.10
2023-05-09T11:01:37.281Z,0.10
2023-05-09T11:02:37.077Z,0.10
2023-05-09T11:03:37.108Z,0.10
2023-05-09T11:04:37.241Z,0.10
2023-05-09T11:05:36.845Z,0.10
2023-05-09T11:06:37.051Z,0.10
2023-05-09T11:07:36.788Z,0.10
2023-05-09T11:08:36.758Z,0.10
2023-05-09T11:09:36.729Z,0.10
2023-05-09T11:10:36.882Z,0.10
2023-05-09T11:11:36.929Z,0.10
2023-05-09T11:12:36.883Z,0.10
2023-05-09T11:13:36.695Z,0.10
2023-05-09T11:14:36.595Z,0.10
2023-05-09T11:15:36.538Z,0.10
2023-05-09T11:16:36.754Z,0.10
2023-05-09T11:17:36.541Z,0.10
2023-05-09T11:18:36.525Z,0.10
2023-05-09T11:19:36.419Z,0.10
2023-05-09T11:20:37.613Z,0.10
2023-05-09T11:21:36.378Z,0.10
2023-05-09T11:22:37.593Z,0.10
2023-05-09T11:23:36.295Z,0.10
2023-05-09T11:24:36.387Z,0.10
2023-05-09T11:25:36.227Z,0.10
2023-05-09T11:26:36.445Z,0.10
2023-05-09T11:27:36.382Z,0.10
2023-05-09T11:28:36.148Z,0.10
2023-05-09T11:29:36.193Z,0.10
2023-05-09T11:30:36.095Z,0.10
2023-05-09T11:31:36.228Z,0.10
2023-05-09T11:32:36.229Z,0.10
2023-05-09T11:33:35.979Z,0.10
2023-05-09T11:34:36.033Z,0.10
2023-05-09T11:35:35.931Z,0.10
2023-05-09T11:36:35.915Z,0.10
2023-05-09T11:37:36.266Z,0.10
2023-05-09T11:38:35.820Z,0.10
2023-05-09T11:39:35.868Z,0.10
2023-05-09T11:40:35.766Z,0.10
2023-05-09T11:41:35.879Z,0.10
2023-05-09T11:42:35.699Z,0.10
2023-05-09T11:43:36.094Z,0.10
2023-05-09T11:44:35.631Z,0.10
2023-05-09T11:45:35.770Z,0.10
2023-05-09T11:46:35.653Z,0.10
2023-05-09T11:47:35.772Z,0.10
2023-05-09T11:48:35.509Z,0.10
2023-05-09T11:49:35.730Z,0.10
2023-05-09T11:50:35.530Z,0.10
2023-05-09T11:51:35.410Z,0.10
2023-05-09T11:52:36.770Z,0.10
2023-05-09T11:53:35.353Z,0.10
2023-05-09T11:54:35.571Z,0.10
2023-05-09T11:55:35.283Z,0.10
2023-05-09T11:56:35.255Z,0.10
2023-05-09T11:57:35.385Z,0.10
2023-05-09T11:58:35.443Z,0.10
2023-05-09T11:59:35.390Z,0.10
2023-05-09T12:00:35.122Z,0.10
2023-05-09T12:01:35.197Z,0.10
2023-05-09T12:02:35.124Z,0.10
2023-05-09T12:03:35.311Z,0.10
2023-05-09T12:04:35.100Z,0.10
2023-05-09T12:05:35.260Z,0.10
2023-05-09T12:06:34.936Z,0.10
2023-05-09T12:07:34.891Z,0.10
2023-05-09T12:08:35.097Z,0.10
2023-05-09T12:09:35.053Z,0.10
2023-05-09T12:10:34.810Z,0.10
2023-05-09T12:11:35.094Z,0.10
2023-05-09T12:12:34.730Z,0.10
2023-05-09T12:13:34.700Z,0.10
2023-05-09T12:14:34.878Z,0.10
2023-05-09T12:15:34.638Z,0.10
2023-05-09T12:16:35.036Z,0.10
2023-05-09T12:17:34.644Z,0.10
2023-05-09T12:18:34.707Z,0.10
2023-05-09T12:19:34.535Z,0.10
2023-05-09T12:20:34.716Z,0.10
2023-05-09T12:21:34.450Z,0.10
2023-05-09T12:22:34.532Z,0.10
2023-05-09T12:23:34.590Z,0.10
2023-05-09T12:24:34.354Z,0.10
2023-05-09T12:25:34.315Z,0.10
2023-05-09T12:26:34.572Z,0.10
2023-05-09T12:27:34.249Z,0.10
2023-05-09T12:28:34.363Z,0.10
2023-05-09T12:29:34.226Z,0.10
2023-05-09T12:30:34.153Z,0.10
2023-05-09T12:31:34.200Z,0.10
2023-05-09T12:32:34.203Z,0.10
2023-05-09T12:33:34.248Z,0.10
2023-05-09T12:34:34.213Z,0.10
2023-05-09T12:35:33.996Z,0.20
2023-05-09T12:36:33.979Z,0.10
2023-05-09T12:37:34.129Z,0.10
2023-05-09T12:38:34.186Z,0.10
2023-05-09T12:39:34.140Z,0.10
2023-05-09T12:40:33.842Z,0.10
2023-05-09T12:41:41.487Z,0.10
2023-05-09T12:42:33.768Z,0.10
2023-05-09T12:43:33.972Z,0.10
2023-05-09T12:44:33.725Z,0.10
2023-05-09T12:45:33.823Z,0.10
2023-05-09T12:46:34.602Z,0.10
2023-05-09T12:47:33.634Z,0.10
2023-05-09T12:48:33.579Z,0.10
2023-05-09T12:49:33.591Z,0.10
2023-05-09T12:50:34.651Z,0.10
2023-05-09T12:51:33.486Z,0.10
2023-05-09T12:52:33.622Z,0.10
2023-05-09T12:53:33.634Z,0.10
2023-05-09T12:54:33.385Z,0.10
2023-05-09T12:55:33.708Z,0.10
2023-05-09T12:56:33.328Z,0.10
2023-05-09T12:57:33.484Z,0.10
2023-05-09T12:58:33.259Z,0.10
2023-05-09T12:59:33.475Z,0.10
2023-05-09T13:00:33.224Z,0.10
2023-05-09T13:01:33.364Z,0.10
2023-05-09T13:02:33.672Z,0.10
2023-05-09T13:03:33.310Z,0.10
2023-05-09T13:04:33.077Z,0.10
2023-05-09T13:05:33.350Z,0.10
2023-05-09T13:06:33.018Z,0.10
2023-05-09T13:07:33.124Z,0.10
2023-05-09T13:08:32.971Z,0.10
2023-05-09T13:09:33.340Z,0.10
2023-05-09T13:10:33.140Z,0.10
2023-05-09T13:11:32.843Z,0.10
2023-05-09T13:12:33.974Z,0.10
2023-05-09T13:13:32.778Z,0.10
2023-05-09T13:14:32.981Z,0.10
2023-05-09T13:15:32.697Z,0.10
2023-05-09T13:16:32.695Z,0.10
2023-05-09T13:17:32.655Z,0.10
2023-05-09T13:18:32.997Z,0.10
2023-05-09T13:19:32.593Z,0.10
2023-05-09T13:20:32.808Z,0.10